Time;durP1;ratioP1;P1;durP2;ratioP2;P2;SDS_P1;SDS_P2;PMS_P1;PMS_P2;Temp;Humidity;BMP_temperature;BMP_pressure;BME280_temperature;BME280_humidity;BME280_pressure;Samples;Min_cycle;Max_cycle;Signal;HPM_P1;HPM_P2
2023/09/19 00:00:59;;;;;;;20.35;3.22;;;;;;;;;;5083424;28;20406;-34
2023/09/19 00:03:28;;;;;;;15.25;3.08;;;;;;;;;;5081551;28;20063;-34
2023/09/19 00:05:55;;;;;;;25.20;3.42;;;;;;;;;;5081119;28;20029;-36
2023/09/19 00:08:22;;;;;;;18.02;3.25;;;;;;;;;;5080554;28;20036;-34
2023/09/19 00:10:49;;;;;;;24.85;3.80;;;;;;;;;;5091279;28;20516;-33
2023/09/19 00:13:16;;;;;;;25.80;4.00;;;;;;;;;;5095526;28;20466;-36
2023/09/19 00:15:50;;;;;;;21.73;4.07;;;;;;;;;;5097546;28;20051;-33
2023/09/19 00:18:18;;;;;;;26.20;4.88;;;;;;;;;;5115032;28;20147;-34
2023/09/19 00:20:49;;;;;;;25.92;4.53;;;;;;;;;;5115124;28;20114;-34
2023/09/19 00:23:16;;;;;;;29.45;4.50;;;;;;;;;;5113582;28;20043;-33
2023/09/19 00:25:43;;;;;;;33.08;4.95;;;;;;;;;;5096555;28;20085;-34
2023/09/19 00:28:11;;;;;;;25.50;4.53;;;;;;;;;;5106961;28;20124;-34
2023/09/19 00:30:41;;;;;;;39.13;4.43;;;;;;;;;;5086472;28;20406;-34
2023/09/19 00:33:11;;;;;;;27.10;4.53;;;;;;;;;;5092384;28;20402;-34
2023/09/19 00:35:38;;;;;;;27.98;5.00;;;;;;;;;;5094203;28;20108;-35
2023/09/19 00:38:06;;;;;;;39.17;4.95;;;;;;;;;;5084942;28;20024;-35
2023/09/19 00:40:33;;;;;;;37.38;6.18;;;;;;;;;;5098378;28;20046;-35
2023/09/19 00:43:00;;;;;;;39.67;7.05;;;;;;;;;;5099494;28;20067;-37
2023/09/19 00:45:28;;;;;;;41.58;9.98;;;;;;;;;;5094887;28;20550;-34
2023/09/19 00:47:56;;;;;;;89.97;22.10;;;;;;;;;;5105496;28;20028;-33
2023/09/19 00:50:25;;;;;;;93.55;21.88;;;;;;;;;;5100235;28;20071;-33
2023/09/19 00:52:58;;;;;;;162.13;40.95;;;;;;;;;;5101661;28;20128;-34
2023/09/19 00:55:27;;;;;;;183.88;49.10;;;;;;;;;;5103336;28;20027;-34
2023/09/19 00:57:56;;;;;;;169.07;46.05;;;;;;;;;;5066757;28;20043;-36
2023/09/19 01:00:24;;;;;;;199.05;55.78;;;;;;;;;;5090204;28;20020;-36
2023/09/19 01:02:51;;;;;;;151.10;48.08;;;;;;;;;;5089950;28;20040;-37
2023/09/19 01:05:19;;;;;;;168.40;50.88;;;;;;;;;;5093905;28;20070;-36
2023/09/19 01:07:49;;;;;;;141.55;44.83;;;;;;;;;;5094041;28;20043;-36
2023/09/19 01:10:22;;;;;;;133.98;45.35;;;;;;;;;;5094044;28;20567;-37
2023/09/19 01:12:55;;;;;;;141.45;45.05;;;;;;;;;;5091296;28;20070;-36
2023/09/19 01:15:40;;;;;;;125.63;44.72;;;;;;;;;;5085619;28;20056;-37
2023/09/19 01:18:07;;;;;;;115.78;41.00;;;;;;;;;;5093470;28;20040;-36
2023/09/19 01:20:35;;;;;;;131.75;43.78;;;;;;;;;;5098782;28;20043;-37
2023/09/19 01:23:25;;;;;;;129.40;41.58;;;;;;;;;;5092548;28;20381;-37
2023/09/19 01:25:55;;;;;;;123.20;40.97;;;;;;;;;;5102239;28;20055;-37
2023/09/19 01:28:36;;;;;;;122.82;40.65;;;;;;;;;;5089008;28;20069;-35
2023/09/19 01:31:03;;;;;;;107.28;38.33;;;;;;;;;;5082550;28;20122;-35
2023/09/19 01:33:51;;;;;;;106.18;39.17;;;;;;;;;;5106885;28;20031;-36
2023/09/19 01:36:18;;;;;;;103.28;37.03;;;;;;;;;;5084639;28;20065;-35
2023/09/19 01:38:45;;;;;;;105.03;37.20;;;;;;;;;;5093656;28;20028;-35
2023/09/19 01:41:15;;;;;;;106.85;36.22;;;;;;;;;;5093584;28;20440;-35
2023/09/19 01:43:43;;;;;;;101.55;36.90;;;;;;;;;;5093127;28;20055;-35
2023/09/19 01:46:15;;;;;;;97.30;35.63;;;;;;;;;;5089994;28;20096;-35
2023/09/19 01:48:42;;;;;;;88.53;32.90;;;;;;;;;;5092595;28;20019;-37
2023/09/19 01:51:14;;;;;;;100.20;34.65;;;;;;;;;;5092431;28;20036;-35
2023/09/19 01:53:46;;;;;;;95.28;33.05;;;;;;;;;;5102243;28;20402;-36
2023/09/19 01:56:15;;;;;;;91.95;32.72;;;;;;;;;;5114114;27;20039;-35
2023/09/19 01:58:47;;;;;;;90.03;31.80;;;;;;;;;;5105092;27;20077;-35
2023/09/19 02:01:17;;;;;;;90.43;30.63;;;;;;;;;;5122378;27;20358;-35
2023/09/19 02:03:45;;;;;;;86.50;29.85;;;;;;;;;;5123767;27;20031;-35
2023/09/19 02:06:17;;;;;;;88.88;28.38;;;;;;;;;;5124386;27;20031;-35
2023/09/19 02:08:44;;;;;;;;;;;;;;;;;;5121778;27;20106;-35
2023/09/19 02:11:13;;;;;;;74.57;27.75;;;;;;;;;;5122480;27;19914;-36
2023/09/19 02:13:40;;;;;;;78.85;26.67;;;;;;;;;;5119959;27;20481;-36
2023/09/19 02:16:09;;;;;;;74.22;26.23;;;;;;;;;;5123285;27;20455;-35
2023/09/19 02:18:36;;;;;;;77.97;27.05;;;;;;;;;;5123148;27;20044;-35
2023/09/19 02:21:12;;;;;;;73.68;25.38;;;;;;;;;;5122254;27;20019;-36
2023/09/19 02:23:39;;;;;;;73.50;24.85;;;;;;;;;;5114666;27;20432;-36
2023/09/19 02:26:06;;;;;;;72.50;25.10;;;;;;;;;;5113599;28;20063;-36
2023/09/19 02:28:33;;;;;;;64.25;23.80;;;;;;;;;;5113389;28;20114;-36
2023/09/19 02:31:00;;;;;;;64.22;23.60;;;;;;;;;;5113476;28;20108;-36
2023/09/19 02:33:29;;;;;;;65.18;22.88;;;;;;;;;;5113468;28;20027;-36
2023/09/19 02:36:00;;;;;;;65.25;22.52;;;;;;;;;;5112349;28;20065;-36
2023/09/19 02:38:28;;;;;;;73.07;22.95;;;;;;;;;;5113219;28;20110;-36
2023/09/19 02:40:55;;;;;;;55.00;20.33;;;;;;;;;;5113213;28;20045;-36
2023/09/19 02:43:23;;;;;;;55.22;20.52;;;;;;;;;;5113020;28;20450;-36
2023/09/19 02:45:50;;;;;;;49.85;19.00;;;;;;;;;;5113274;28;20255;-36
2023/09/19 02:48:20;;;;;;;58.35;20.38;;;;;;;;;;5113169;28;20042;-36
2023/09/19 02:50:47;;;;;;;65.70;21.13;;;;;;;;;;5113194;28;20043;-36
2023/09/19 02:53:14;;;;;;;47.30;19.38;;;;;;;;;;5112853;28;20043;-36
2023/09/19 02:55:42;;;;;;;51.70;18.63;;;;;;;;;;5113172;28;20493;-35
2023/09/19 02:58:11;;;;;;;49.97;19.15;;;;;;;;;;5112888;28;20080;-34
2023/09/19 03:00:38;;;;;;;41.50;17.00;;;;;;;;;;5112805;28;20042;-35
2023/09/19 03:03:06;;;;;;;51.28;17.67;;;;;;;;;;5107620;28;20028;-35
2023/09/19 03:05:33;;;;;;;52.53;17.98;;;;;;;;;;5092280;28;20566;-34
2023/09/19 03:08:03;;;;;;;47.97;16.70;;;;;;;;;;5092429;28;20027;-34
2023/09/19 03:10:30;;;;;;;41.53;15.45;;;;;;;;;;5092245;28;20040;-35
2023/09/19 03:12:59;;;;;;;44.78;15.60;;;;;;;;;;5092036;28;20076;-35
2023/09/19 03:15:26;;;;;;;44.10;15.70;;;;;;;;;;5092159;28;20389;-35
2023/09/19 03:17:53;;;;;;;45.72;15.57;;;;;;;;;;5092302;28;20489;-35
2023/09/19 03:20:21;;;;;;;43.30;15.23;;;;;;;;;;5092286;28;20088;-35
2023/09/19 03:22:48;;;;;;;40.90;15.15;;;;;;;;;;5092255;28;20043;-35
2023/09/19 03:25:17;;;;;;;38.40;14.05;;;;;;;;;;5092034;28;20769;-35
2023/09/19 03:27:44;;;;;;;38.95;13.85;;;;;;;;;;5092028;28;20111;-35
2023/09/19 03:30:13;;;;;;;33.22;12.45;;;;;;;;;;5092128;28;20028;-35
2023/09/19 03:32:47;;;;;;;34.17;13.05;;;;;;;;;;5091899;28;20036;-35
2023/09/19 03:35:14;;;;;;;33.83;12.45;;;;;;;;;;5091864;28;20393;-35
2023/09/19 03:37:41;;;;;;;35.42;12.40;;;;;;;;;;5091922;28;20150;-35
2023/09/19 03:40:10;;;;;;;36.20;12.88;;;;;;;;;;5091854;28;20034;-35
2023/09/19 03:42:40;;;;;;;27.35;11.27;;;;;;;;;;5091686;28;20043;-35
2023/09/19 03:45:11;;;;;;;29.67;11.50;;;;;;;;;;5091733;28;20028;-35
2023/09/19 03:47:40;;;;;;;28.98;11.88;;;;;;;;;;5091717;28;20039;-35
2023/09/19 03:50:17;;;;;;;29.58;10.98;;;;;;;;;;5091864;28;20032;-35
2023/09/19 03:52:47;;;;;;;29.52;11.68;;;;;;;;;;5091396;28;20048;-34
2023/09/19 03:55:14;;;;;;;32.60;11.32;;;;;;;;;;5091770;28;20034;-35
2023/09/19 03:57:41;;;;;;;25.23;10.05;;;;;;;;;;5091759;28;20069;-34
2023/09/19 04:00:12;;;;;;;24.92;9.60;;;;;;;;;;5091727;28;20040;-35
2023/09/19 04:02:40;;;;;;;27.70;9.48;;;;;;;;;;5091479;28;20032;-35
2023/09/19 04:05:07;;;;;;;22.50;9.05;;;;;;;;;;5091544;28;20120;-35
2023/09/19 04:07:34;;;;;;;28.10;9.40;;;;;;;;;;5091695;28;20032;-35
2023/09/19 04:10:02;;;;;;;21.85;8.77;;;;;;;;;;5091606;28;20070;-35
2023/09/19 04:12:29;;;;;;;20.95;8.32;;;;;;;;;;5091306;28;20107;-34
2023/09/19 04:14:56;;;;;;;25.35;8.65;;;;;;;;;;5091492;28;20036;-35
2023/09/19 04:17:23;;;;;;;21.48;8.40;;;;;;;;;;5091587;28;20028;-35
2023/09/19 04:19:50;;;;;;;23.83;8.80;;;;;;;;;;5091239;28;20424;-35
2023/09/19 04:22:17;;;;;;;19.70;7.68;;;;;;;;;;5091289;28;20032;-35
2023/09/19 04:24:44;;;;;;;18.00;7.45;;;;;;;;;;5091581;28;20059;-35
2023/09/19 04:27:14;;;;;;;18.50;7.22;;;;;;;;;;5091184;28;20036;-35
2023/09/19 04:29:44;;;;;;;19.58;7.60;;;;;;;;;;5091327;28;20103;-34
2023/09/19 04:32:13;;;;;;;18.27;7.35;;;;;;;;;;5091172;28;20028;-35
2023/09/19 04:34:40;;;;;;;18.63;6.88;;;;;;;;;;5091282;28;20441;-35
2023/09/19 04:37:07;;;;;;;15.65;6.82;;;;;;;;;;5091433;28;20448;-35
2023/09/19 04:39:34;;;;;;;16.13;6.63;;;;;;;;;;5091098;28;20079;-34
2023/09/19 04:42:01;;;;;;;18.48;7.15;;;;;;;;;;5091097;28;20036;-35
2023/09/19 04:44:28;;;;;;;14.82;6.28;;;;;;;;;;5091352;28;20114;-35
2023/09/19 04:46:55;;;;;;;18.30;6.75;;;;;;;;;;5091372;28;20028;-35
2023/09/19 04:49:22;;;;;;;18.48;6.63;;;;;;;;;;5091159;28;20032;-35
2023/09/19 04:51:49;;;;;;;17.42;5.97;;;;;;;;;;5091103;28;20103;-35
2023/09/19 04:54:18;;;;;;;12.65;5.75;;;;;;;;;;5091075;28;20048;-35
2023/09/19 04:56:45;;;;;;;14.30;5.97;;;;;;;;;;5091045;28;20032;-35
2023/09/19 04:59:12;;;;;;;13.80;5.70;;;;;;;;;;5093835;28;20032;-35
2023/09/19 05:01:38;;;;;;;14.73;5.53;;;;;;;;;;5094989;28;20498;-35
2023/09/19 05:04:05;;;;;;;12.55;4.97;;;;;;;;;;5094803;28;20500;-35
2023/09/19 05:06:35;;;;;;;14.90;5.60;;;;;;;;;;5094910;28;20066;-35
2023/09/19 05:09:05;;;;;;;13.27;5.30;;;;;;;;;;5094858;28;20036;-34
2023/09/19 05:11:33;;;;;;;13.85;5.47;;;;;;;;;;5094596;28;20498;-35
2023/09/19 05:14:03;;;;;;;13.88;5.28;;;;;;;;;;5094572;28;20036;-35
2023/09/19 05:16:34;;;;;;;12.00;4.53;;;;;;;;;;5094499;28;20047;-35
2023/09/19 05:19:01;;;;;;;11.70;4.50;;;;;;;;;;5094385;28;20093;-35
2023/09/19 05:21:29;;;;;;;14.48;5.13;;;;;;;;;;5094445;28;20032;-35
2023/09/19 05:23:56;;;;;;;12.05;4.18;;;;;;;;;;5094316;28;20036;-34
2023/09/19 05:26:23;;;;;;;11.38;4.22;;;;;;;;;;5094499;28;20035;-35
2023/09/19 05:28:50;;;;;;;10.07;4.45;;;;;;;;;;5094266;28;20405;-35
2023/09/19 05:31:17;;;;;;;9.95;4.88;;;;;;;;;;5094213;28;20035;-35
2023/09/19 05:33:44;;;;;;;11.88;4.63;;;;;;;;;;5094006;28;20060;-34
2023/09/19 05:36:11;;;;;;;8.98;4.22;;;;;;;;;;5094356;28;20032;-35
2023/09/19 05:38:41;;;;;;;8.52;3.72;;;;;;;;;;5094066;28;20055;-35
2023/09/19 05:41:09;;;;;;;8.60;3.90;;;;;;;;;;5093962;28;20028;-35
2023/09/19 05:43:37;;;;;;;9.93;3.95;;;;;;;;;;5093939;28;20043;-35
2023/09/19 05:46:04;;;;;;;9.48;3.80;;;;;;;;;;5093991;28;20436;-35
2023/09/19 05:48:31;;;;;;;10.05;3.88;;;;;;;;;;5093963;28;20135;-36
2023/09/19 05:50:58;;;;;;;10.40;3.55;;;;;;;;;;5094084;28;20032;-36
2023/09/19 05:53:25;;;;;;;8.25;3.35;;;;;;;;;;5093785;28;20056;-36
2023/09/19 05:55:53;;;;;;;8.27;3.50;;;;;;;;;;5093949;28;20024;-36
2023/09/19 05:58:20;;;;;;;9.10;3.10;;;;;;;;;;5093656;28;20115;-36
2023/09/19 06:00:49;;;;;;;7.82;3.40;;;;;;;;;;5094154;28;20036;-35
2023/09/19 06:03:17;;;;;;;8.82;3.42;;;;;;;;;;5113898;28;20031;-34
2023/09/19 06:05:46;;;;;;;6.65;3.33;;;;;;;;;;5114283;28;20434;-35
2023/09/19 06:08:13;;;;;;;7.10;2.90;;;;;;;;;;5113939;28;20032;-35
2023/09/19 06:10:40;;;;;;;7.63;2.97;;;;;;;;;;5114064;28;20024;-34
2023/09/19 06:13:09;;;;;;;6.82;2.53;;;;;;;;;;5113883;28;20031;-34
2023/09/19 06:15:36;;;;;;;7.95;2.97;;;;;;;;;;5113824;28;20031;-34
2023/09/19 06:18:04;;;;;;;6.93;2.72;;;;;;;;;;5113627;28;20080;-35
2023/09/19 06:20:32;;;;;;;5.90;2.80;;;;;;;;;;5113623;28;20020;-36
2023/09/19 06:23:01;;;;;;;5.72;2.42;;;;;;;;;;5113754;28;20028;-35
2023/09/19 06:25:28;;;;;;;6.47;2.97;;;;;;;;;;5113525;28;20043;-35
2023/09/19 06:27:56;;;;;;;5.55;2.50;;;;;;;;;;5113597;28;20059;-36
2023/09/19 06:30:24;;;;;;;6.45;2.95;;;;;;;;;;5113497;28;20031;-36
2023/09/19 06:32:56;;;;;;;7.95;2.72;;;;;;;;;;5113509;28;20020;-36
2023/09/19 06:35:23;;;;;;;4.47;2.40;;;;;;;;;;5113447;28;20027;-36
2023/09/19 06:37:51;;;;;;;6.50;2.30;;;;;;;;;;5113599;28;20425;-36
2023/09/19 06:40:17;;;;;;;5.30;2.60;;;;;;;;;;5113424;28;20485;-36
2023/09/19 06:42:46;;;;;;;6.28;2.30;;;;;;;;;;5113357;28;20046;-36
2023/09/19 06:45:17;;;;;;;5.13;2.20;;;;;;;;;;5113308;28;20023;-36
2023/09/19 06:47:45;;;;;;;6.37;2.87;;;;;;;;;;5113413;28;20115;-36
2023/09/19 06:50:18;;;;;;;5.00;2.22;;;;;;;;;;5113033;28;20046;-36
2023/09/19 06:52:50;;;;;;;4.07;2.30;;;;;;;;;;5105879;28;20109;-36
2023/09/19 06:55:17;;;;;;;5.05;2.25;;;;;;;;;;5092585;28;20036;-36
2023/09/19 06:57:44;;;;;;;6.05;2.25;;;;;;;;;;5092566;28;20032;-36
2023/09/19 07:00:25;;;;;;;4.88;1.85;;;;;;;;;;5092652;28;20389;-35
2023/09/19 07:03:00;;;;;;;4.82;2.00;;;;;;;;;;5092532;28;20119;-34
2023/09/19 07:05:31;;;;;;;4.78;1.90;;;;;;;;;;5092406;28;20504;-34
2023/09/19 07:08:00;;;;;;;4.22;1.98;;;;;;;;;;5092573;28;20039;-35
2023/09/19 07:10:35;;;;;;;4.38;1.90;;;;;;;;;;5092389;28;20070;-34
2023/09/19 07:13:13;;;;;;;4.88;1.50;;;;;;;;;;5092383;28;20040;-34
2023/09/19 07:15:47;;;;;;;5.82;1.80;;;;;;;;;;5092387;28;20482;-35
2023/09/19 07:18:16;;;;;;;3.33;1.70;;;;;;;;;;5092320;28;20039;-35
2023/09/19 07:20:49;;;;;;;4.38;1.70;;;;;;;;;;5091759;28;20021;-34
2023/09/19 07:23:18;;;;;;;2.65;1.63;;;;;;;;;;5092194;28;20024;-34
2023/09/19 07:25:46;;;;;;;2.45;1.48;;;;;;;;;;5092134;28;20036;-34
2023/09/19 07:28:13;;;;;;;3.53;1.67;;;;;;;;;;5092311;28;20405;-35
2023/09/19 07:30:41;;;;;;;4.03;1.65;;;;;;;;;;5091987;28;20035;-34
2023/09/19 07:33:11;;;;;;;5.93;1.65;;;;;;;;;;5092043;28;20035;-35
2023/09/19 07:35:41;;;;;;;2.60;1.40;;;;;;;;;;5091938;28;20055;-34
2023/09/19 07:38:11;;;;;;;3.30;1.38;;;;;;;;;;5091806;28;20028;-34
2023/09/19 07:40:38;;;;;;;3.70;1.50;;;;;;;;;;5091826;28;20043;-35
2023/09/19 07:43:05;;;;;;;3.15;1.65;;;;;;;;;;5091985;28;20032;-35
2023/09/19 07:45:32;;;;;;;4.00;1.60;;;;;;;;;;5092015;28;20057;-35
2023/09/19 07:48:03;;;;;;;4.75;1.45;;;;;;;;;;5091782;28;20319;-35
2023/09/19 07:50:31;;;;;;;4.18;1.42;;;;;;;;;;5091585;28;20036;-34
2023/09/19 07:52:58;;;;;;;2.47;1.30;;;;;;;;;;5091531;28;20055;-34
2023/09/19 07:55:25;;;;;;;2.80;1.40;;;;;;;;;;5091628;28;20016;-34
2023/09/19 07:57:53;;;;;;;5.75;1.52;;;;;;;;;;5091622;28;20032;-35
2023/09/19 08:00:20;;;;;;;4.30;1.67;;;;;;;;;;5091709;28;20089;-35
2023/09/19 08:02:47;;;;;;;2.42;1.17;;;;;;;;;;5091780;28;20035;-34
2023/09/19 08:05:18;;;;;;;2.55;1.23;;;;;;;;;;5091497;28;20032;-34
2023/09/19 08:07:49;;;;;;;4.70;1.25;;;;;;;;;;5090636;28;20032;-35
2023/09/19 08:10:19;;;;;;;3.60;1.25;;;;;;;;;;5086406;28;20050;-36
2023/09/19 08:12:47;;;;;;;3.90;1.45;;;;;;;;;;5091238;28;20020;-36
2023/09/19 08:15:17;;;;;;;4.07;1.17;;;;;;;;;;5091483;28;20024;-36
2023/09/19 08:17:44;;;;;;;2.10;1.30;;;;;;;;;;5091551;28;20024;-36
2023/09/19 08:20:18;;;;;;;1.98;1.23;;;;;;;;;;5091439;28;20031;-36
2023/09/19 08:22:49;;;;;;;2.83;1.10;;;;;;;;;;5074496;28;20093;-35
2023/09/19 08:25:19;;;;;;;3.88;1.10;;;;;;;;;;5091575;28;20036;-36
2023/09/19 08:27:48;;;;;;;4.15;1.40;;;;;;;;;;5091473;28;20032;-36
2023/09/19 08:30:16;;;;;;;3.13;1.23;;;;;;;;;;5091350;28;20032;-36
2023/09/19 08:32:43;;;;;;;3.00;1.27;;;;;;;;;;5091633;28;20103;-36
2023/09/19 08:35:11;;;;;;;4.28;1.17;;;;;;;;;;5095495;28;20032;-36
2023/09/19 08:37:38;;;;;;;1.92;1.00;;;;;;;;;;5095360;28;20039;-36
2023/09/19 08:40:09;;;;;;;2.35;0.93;;;;;;;;;;5095349;28;20760;-36
2023/09/19 08:42:51;;;;;;;2.55;1.13;;;;;;;;;;5095132;28;20047;-35
2023/09/19 08:45:26;;;;;;;;;;;;;;;;;;5095774;28;20028;-34
2023/09/19 08:48:17;;;;;;;4.07;1.15;;;;;;;;;;5094755;28;19911;-34
2023/09/19 08:50:50;;;;;;;2.97;1.10;;;;;;;;;;5095150;28;20486;-35
2023/09/19 08:53:23;;;;;;;2.80;1.10;;;;;;;;;;5094705;28;20047;-35
2023/09/19 08:55:56;;;;;;;3.30;1.38;;;;;;;;;;5094910;28;20478;-34
2023/09/19 08:58:29;;;;;;;1.48;0.90;;;;;;;;;;5094739;28;20040;-34
2023/09/19 09:00:57;;;;;;;1.13;0.90;;;;;;;;;;5094884;28;20486;-34
2023/09/19 09:03:24;;;;;;;3.15;1.10;;;;;;;;;;5094654;28;20035;-36
2023/09/19 09:05:52;;;;;;;3.30;0.98;;;;;;;;;;5094933;28;20520;-35
2023/09/19 09:08:22;;;;;;;2.63;0.90;;;;;;;;;;5094825;28;20020;-36
2023/09/19 09:10:50;;;;;;;3.28;1.13;;;;;;;;;;5094223;28;20031;-36
2023/09/19 09:13:17;;;;;;;3.60;0.88;;;;;;;;;;5094560;28;20036;-34
2023/09/19 09:15:44;;;;;;;4.35;1.30;;;;;;;;;;5094695;28;20078;-34
2023/09/19 09:18:13;;;;;;;4.78;1.20;;;;;;;;;;5094590;28;20034;-34
2023/09/19 09:20:41;;;;;;;6.82;1.00;;;;;;;;;;5094864;28;20046;-34
2023/09/19 09:23:08;;;;;;;2.80;0.98;;;;;;;;;;5094449;28;20036;-34
2023/09/19 09:26:02;;;;;;;3.03;1.20;;;;;;;;;;5094089;28;20032;-34
2023/09/19 09:28:30;;;;;;;2.95;1.17;;;;;;;;;;5080828;28;20059;-34
2023/09/19 09:30:58;;;;;;;4.00;1.10;;;;;;;;;;5093785;28;20553;-34
2023/09/19 09:33:25;;;;;;;3.05;1.27;;;;;;;;;;5093981;28;20032;-34
2023/09/19 09:35:56;;;;;;;3.58;0.90;;;;;;;;;;5094044;28;20374;-35
2023/09/19 09:38:32;;;;;;;2.28;1.00;;;;;;;;;;5092513;28;20024;-34
2023/09/19 09:41:06;;;;;;;3.28;1.10;;;;;;;;;;5093240;28;20028;-34
2023/09/19 09:43:41;;;;;;;2.35;1.10;;;;;;;;;;5092507;28;20032;-35
2023/09/19 09:49:14;;;;;;;5.75;1.20;;;;;;;;;;5093071;28;20390;-34
2023/09/19 09:51:39;;;;;;;5.28;1.30;;;;;;;;;;5086781;28;20047;-35
2023/09/19 09:54:15;;;;;;;5.47;1.23;;;;;;;;;;5093356;28;20040;-35
2023/09/19 09:56:58;;;;;;;4.78;1.67;;;;;;;;;;5090688;28;20036;-36
2023/09/19 09:59:46;;;;;;;6.03;1.40;;;;;;;;;;5092900;28;20035;-35
2023/09/19 10:02:13;;;;;;;12.02;1.60;;;;;;;;;;5092942;28;20489;-35
2023/09/19 10:04:51;;;;;;;5.15;1.33;;;;;;;;;;5092886;28;20059;-35
2023/09/19 10:07:41;;;;;;;8.65;1.40;;;;;;;;;;5093691;28;20077;-34
2023/09/19 10:10:21;;;;;;;6.78;1.38;;;;;;;;;;5073203;28;20024;-37
2023/09/19 10:12:48;;;;;;;4.35;1.20;;;;;;;;;;5077299;28;20547;-36
2023/09/19 10:15:24;;;;;;;10.57;1.50;;;;;;;;;;5093562;28;20489;-36
2023/09/19 10:17:56;;;;;;;4.80;1.20;;;;;;;;;;5093433;28;20039;-35
2023/09/19 10:20:35;;;;;;;8.98;1.20;;;;;;;;;;5093208;28;20040;-36
2023/09/19 10:23:09;;;;;;;6.70;1.30;;;;;;;;;;5093046;28;20478;-36
2023/09/19 10:25:37;;;;;;;5.18;1.65;;;;;;;;;;5092973;28;20126;-37
2023/09/19 10:28:10;;;;;;;6.95;1.40;;;;;;;;;;5093487;28;20028;-37
2023/09/19 10:30:44;;;;;;;8.10;1.60;;;;;;;;;;5093153;28;20470;-37
2023/09/19 10:33:13;;;;;;;4.22;1.05;;;;;;;;;;5093173;28;20074;-37
2023/09/19 10:35:41;;;;;;;6.95;1.15;;;;;;;;;;5093046;28;20024;-37
2023/09/19 10:38:10;;;;;;;6.28;1.10;;;;;;;;;;5093219;28;20024;-37
2023/09/19 10:40:40;;;;;;;3.83;1.20;;;;;;;;;;5092970;28;20032;-37
2023/09/19 10:43:07;;;;;;;7.47;1.13;;;;;;;;;;5092466;28;20036;-37
2023/09/19 10:45:38;;;;;;;6.70;1.02;;;;;;;;;;5092314;28;20042;-36
2023/09/19 10:48:07;;;;;;;5.97;0.95;;;;;;;;;;5075101;28;20097;-36
2023/09/19 10:50:36;;;;;;;8.32;1.33;;;;;;;;;;5092600;28;20071;-36
2023/09/19 10:53:08;;;;;;;7.50;1.10;;;;;;;;;;5092295;28;20126;-35
2023/09/19 10:55:35;;;;;;;8.20;1.60;;;;;;;;;;5091735;28;20044;-36
2023/09/19 10:58:14;;;;;;;7.18;1.17;;;;;;;;;;5092527;28;20019;-36
2023/09/19 11:01:09;;;;;;;12.15;1.45;;;;;;;;;;5092368;28;20559;-35
2023/09/19 11:03:43;;;;;;;7.20;1.30;;;;;;;;;;5089320;28;20112;-36
2023/09/19 11:06:20;;;;;;;5.65;1.23;;;;;;;;;;5092224;28;20071;-35
2023/09/19 11:11:45;;;;;;;5.90;1.30;;;;;;;;;;5092508;28;20477;-36
2023/09/19 11:14:24;;;;;;;5.93;1.60;;;;;;;;;;5073970;28;20032;-37
2023/09/19 11:17:15;;;;;;;111.55;6.35;;;;;;;;;;5092152;28;20485;-51
2023/09/19 11:20:01;;;;;;;82.78;5.70;;;;;;;;;;5082633;28;20043;-49
2023/09/19 11:24:36;;;;;;;31.50;3.25;;;;;;;;;;5129168;27;20314;-43
2023/09/19 11:27:13;;;;;;;34.08;2.72;;;;;;;;;;5129319;28;20049;-41
2023/09/19 11:29:41;;;;;;;41.17;3.67;;;;;;;;;;5128154;28;20049;-40
2023/09/19 11:32:09;;;;;;;25.20;2.30;;;;;;;;;;5128231;28;20107;-40
2023/09/19 11:34:45;;;;;;;334.13;28.70;;;;;;;;;;5129064;28;20098;-44
2023/09/19 11:37:12;;;;;;;168.43;17.15;;;;;;;;;;5128979;28;20031;-43
2023/09/19 11:39:40;;;;;;;101.78;11.52;;;;;;;;;;5126859;28;20020;-42
2023/09/19 11:42:26;;;;;;;80.78;9.40;;;;;;;;;;5128489;28;20059;-43
2023/09/19 11:44:55;;;;;;;70.63;8.88;;;;;;;;;;5129150;28;20168;-46
2023/09/19 11:47:24;;;;;;;78.57;10.65;;;;;;;;;;5128436;28;20108;-42
2023/09/19 11:49:53;;;;;;;84.07;10.43;;;;;;;;;;5127044;28;20077;-40
2023/09/19 11:52:24;;;;;;;86.53;9.52;;;;;;;;;;5129186;28;20031;-39
2023/09/19 11:55:01;;;;;;;427.50;41.80;;;;;;;;;;5129168;28;20648;-40
2023/09/19 11:57:30;;;;;;;251.85;25.35;;;;;;;;;;5128566;28;20030;-40
2023/09/19 11:59:58;;;;;;;213.32;22.40;;;;;;;;;;5127291;28;20023;-40
2023/09/19 12:02:40;;;;;;;188.07;20.15;;;;;;;;;;5128609;28;20050;-40
2023/09/19 12:05:07;;;;;;;;;;;;;;;;;;5128790;28;20585;-40
2023/09/19 12:07:45;;;;;;;154.27;18.48;;;;;;;;;;5128329;28;19946;-41
2023/09/19 12:10:15;;;;;;;155.52;17.83;;;;;;;;;;5127138;28;20043;-41
2023/09/19 12:12:53;;;;;;;162.07;18.88;;;;;;;;;;5128401;28;20496;-41
2023/09/19 12:15:28;;;;;;;128.57;18.55;;;;;;;;;;5128695;28;20035;-40
2023/09/19 12:17:55;;;;;;;131.10;16.95;;;;;;;;;;5128571;28;20042;-40
2023/09/19 12:20:23;;;;;;;121.20;15.90;;;;;;;;;;5128607;28;20027;-40
2023/09/19 12:22:50;;;;;;;116.28;15.65;;;;;;;;;;5128368;28;20044;-40
2023/09/19 12:25:18;;;;;;;111.63;16.17;;;;;;;;;;5128728;28;20128;-40
2023/09/19 12:27:52;;;;;;;133.65;16.85;;;;;;;;;;5128445;28;20036;-41
2023/09/19 12:30:22;;;;;;;116.05;16.13;;;;;;;;;;5128499;28;20035;-41
2023/09/19 12:32:49;;;;;;;120.28;15.70;;;;;;;;;;5128489;28;20122;-40
2023/09/19 12:35:35;;;;;;;112.43;14.38;;;;;;;;;;5118025;28;20089;-40
2023/09/19 12:38:03;;;;;;;92.97;13.43;;;;;;;;;;5114611;28;20038;-40
2023/09/19 12:40:33;;;;;;;108.65;14.48;;;;;;;;;;5114625;28;20020;-41
2023/09/19 12:43:02;;;;;;;85.80;13.13;;;;;;;;;;5114515;28;20044;-41
2023/09/19 12:45:30;;;;;;;91.65;13.13;;;;;;;;;;5114882;28;20028;-40
2023/09/19 12:48:16;;;;;;;79.30;11.07;;;;;;;;;;5114604;28;20112;-40
2023/09/19 12:51:05;;;;;;;75.70;10.48;;;;;;;;;;5114633;28;20023;-42
2023/09/19 12:53:43;;;;;;;72.45;11.00;;;;;;;;;;5114253;28;20054;-41
2023/09/19 12:56:11;;;;;;;68.03;9.77;;;;;;;;;;5114281;28;20106;-40
2023/09/19 12:58:51;;;;;;;81.43;10.00;;;;;;;;;;5114178;28;20032;-41
2023/09/19 13:01:18;;;;;;;79.40;9.77;;;;;;;;;;5113899;28;20035;-41
2023/09/19 13:03:45;;;;;;;57.78;8.88;;;;;;;;;;5114079;28;20108;-41
2023/09/19 13:06:13;;;;;;;55.80;7.63;;;;;;;;;;5114129;28;20468;-41
2023/09/19 13:08:49;;;;;;;49.85;6.70;;;;;;;;;;5114045;28;20024;-40
2023/09/19 13:11:20;;;;;;;48.50;5.55;;;;;;;;;;5113993;28;20032;-41
2023/09/19 13:13:49;;;;;;;45.40;5.68;;;;;;;;;;5114027;28;20464;-41
2023/09/19 13:16:22;;;;;;;37.22;4.85;;;;;;;;;;5113851;28;20040;-41
2023/09/19 13:18:52;;;;;;;34.97;5.20;;;;;;;;;;5113779;28;20337;-41
2023/09/19 13:21:28;;;;;;;48.28;5.75;;;;;;;;;;5113888;28;20036;-41
2023/09/19 13:23:59;;;;;;;33.10;4.90;;;;;;;;;;5113588;28;20047;-41
2023/09/19 13:26:28;;;;;;;35.40;4.13;;;;;;;;;;5113785;28;20046;-41
2023/09/19 13:28:57;;;;;;;23.13;3.70;;;;;;;;;;5113559;28;20032;-41
2023/09/19 13:31:25;;;;;;;38.00;4.38;;;;;;;;;;5113582;28;20024;-43
2023/09/19 13:33:52;;;;;;;37.40;4.82;;;;;;;;;;5113674;28;20497;-41
2023/09/19 13:36:19;;;;;;;38.38;4.30;;;;;;;;;;5113542;28;20055;-41
2023/09/19 13:38:48;;;;;;;28.63;3.90;;;;;;;;;;5113595;28;20428;-41
2023/09/19 13:41:16;;;;;;;35.25;4.03;;;;;;;;;;5113222;28;20027;-41
2023/09/19 13:43:44;;;;;;;24.80;3.55;;;;;;;;;;5113562;28;20457;-42
2023/09/19 13:46:15;;;;;;;20.65;2.70;;;;;;;;;;5112355;28;20057;-39
2023/09/19 13:48:42;;;;;;;23.27;3.30;;;;;;;;;;5113325;28;20035;-40
2023/09/19 13:51:10;;;;;;;22.73;3.35;;;;;;;;;;5112579;28;20046;-39
2023/09/19 13:53:37;;;;;;;31.48;3.63;;;;;;;;;;5112815;28;20031;-39
2023/09/19 13:56:04;;;;;;;26.05;2.50;;;;;;;;;;5112700;28;20035;-39
2023/09/19 13:58:33;;;;;;;11.45;2.28;;;;;;;;;;5112704;28;20039;-40
2023/09/19 14:01:00;;;;;;;20.40;2.20;;;;;;;;;;5099590;28;20119;-38
2023/09/19 14:03:28;;;;;;;21.52;2.40;;;;;;;;;;5112497;28;20039;-39
2023/09/19 14:05:55;;;;;;;22.33;2.40;;;;;;;;;;5112505;28;20122;-39
2023/09/19 14:08:23;;;;;;;32.25;3.00;;;;;;;;;;5112259;28;20086;-39
2023/09/19 14:10:50;;;;;;;20.02;2.15;;;;;;;;;;5112436;28;20039;-39
2023/09/19 14:13:17;;;;;;;24.17;2.05;;;;;;;;;;5112310;28;20084;-39
2023/09/19 14:15:44;;;;;;;18.80;2.17;;;;;;;;;;5112475;28;20023;-39
2023/09/19 14:18:12;;;;;;;19.95;2.53;;;;;;;;;;5112465;28;20603;-39
2023/09/19 14:20:43;;;;;;;19.90;2.15;;;;;;;;;;5112568;28;20034;-39
2023/09/19 14:23:10;;;;;;;27.05;2.38;;;;;;;;;;5111740;28;20044;-39
2023/09/19 14:25:38;;;;;;;14.38;1.92;;;;;;;;;;5112490;28;20031;-39
2023/09/19 14:28:08;;;;;;;21.98;2.35;;;;;;;;;;5111956;28;20116;-39
2023/09/19 14:30:37;;;;;;;37.72;2.58;;;;;;;;;;5100811;28;20076;-39
2023/09/19 14:33:04;;;;;;;31.48;3.17;;;;;;;;;;5101206;28;20077;-40
2023/09/19 14:35:31;;;;;;;54.67;3.88;;;;;;;;;;5111831;28;20050;-44
2023/09/19 14:37:58;;;;;;;45.78;3.13;;;;;;;;;;5111548;28;20062;-41
2023/09/19 14:40:26;;;;;;;61.08;3.72;;;;;;;;;;5110380;28;20027;-40
2023/09/19 14:42:54;;;;;;;48.63;3.45;;;;;;;;;;5111130;28;20764;-40
2023/09/19 14:45:21;;;;;;;50.03;3.75;;;;;;;;;;5111346;28;20114;-40
2023/09/19 14:47:48;;;;;;;44.60;3.72;;;;;;;;;;5111821;28;20028;-45
2023/09/19 14:50:15;;;;;;;33.13;3.17;;;;;;;;;;5111288;28;20020;-40
2023/09/19 14:52:42;;;;;;;50.22;2.97;;;;;;;;;;5111515;28;20032;-41
2023/09/19 14:55:15;;;;;;;36.83;3.03;;;;;;;;;;5111392;28;20035;-41